Terminal Aerodrome Forecast
Issued by NWS

Home | Current Version | Previous Version | Text Only | Print | Product List | Glossary On
Versions: 1 2 3 4 5 6 7 8 9 10 11 12
000
FTUS42 KMLB 300500
TAFSFB
TAF
KSFB 300536Z 3006/3106 26004KT P6SM SCT250
     FM301400 29009KT P6SM BKN040
     FM302000 33013G20KT P6SM FEW040 BKN250
     FM310100 34008KT P6SM SCT250=

USA.gov is the U.S. government's official web portal to all federal, state and local government web resources and services.